sensor_id;sensor_type;location;lat;lon;timestamp;temperature;humidity
66271;DHT22;53063;39.614;8.814;2022-11-09T00:02:22;16.50;82.70
66271;DHT22;53063;39.614;8.814;2022-11-09T00:04:48;16.50;82.80
66271;DHT22;53063;39.614;8.814;2022-11-09T00:07:14;16.50;83.10
66271;DHT22;53063;39.614;8.814;2022-11-09T00:09:40;16.50;83.10
66271;DHT22;53063;39.614;8.814;2022-11-09T00:12:06;16.50;83.30
66271;DHT22;53063;39.614;8.814;2022-11-09T00:14:33;16.40;83.70
66271;DHT22;53063;39.614;8.814;2022-11-09T00:17:00;16.40;84.00
66271;DHT22;53063;39.614;8.814;2022-11-09T00:19:26;16.40;84.30
66271;DHT22;53063;39.614;8.814;2022-11-09T00:21:52;16.40;84.40
66271;DHT22;53063;39.614;8.814;2022-11-09T00:24:18;16.40;84.70
66271;DHT22;53063;39.614;8.814;2022-11-09T00:26:44;16.40;85.00
66271;DHT22;53063;39.614;8.814;2022-11-09T00:29:10;16.30;85.30
66271;DHT22;53063;39.614;8.814;2022-11-09T00:31:36;16.30;85.70
66271;DHT22;53063;39.614;8.814;2022-11-09T00:34:02;16.40;85.90
66271;DHT22;53063;39.614;8.814;2022-11-09T00:36:29;16.30;86.10
66271;DHT22;53063;39.614;8.814;2022-11-09T00:38:56;16.30;86.40
66271;DHT22;53063;39.614;8.814;2022-11-09T00:41:23;16.30;86.50
66271;DHT22;53063;39.614;8.814;2022-11-09T00:43:49;16.30;86.40
66271;DHT22;53063;39.614;8.814;2022-11-09T00:46:16;16.30;86.40
66271;DHT22;53063;39.614;8.814;2022-11-09T00:48:42;16.30;86.30
66271;DHT22;53063;39.614;8.814;2022-11-09T00:51:09;16.20;86.70
66271;DHT22;53063;39.614;8.814;2022-11-09T00:53:35;16.30;86.50
66271;DHT22;53063;39.614;8.814;2022-11-09T00:56:11;16.20;86.50
66271;DHT22;53063;39.614;8.814;2022-11-09T00:58:38;16.20;86.60
66271;DHT22;53063;39.614;8.814;2022-11-09T01:01:07;16.30;86.50
66271;DHT22;53063;39.614;8.814;2022-11-09T01:03:36;16.30;86.50
66271;DHT22;53063;39.614;8.814;2022-11-09T01:06:02;16.30;86.40
66271;DHT22;53063;39.614;8.814;2022-11-09T01:08:29;16.30;86.10
66271;DHT22;53063;39.614;8.814;2022-11-09T01:10:55;16.40;85.90
66271;DHT22;53063;39.614;8.814;2022-11-09T01:13:21;16.40;85.90
66271;DHT22;53063;39.614;8.814;2022-11-09T01:15:50;16.40;85.90
66271;DHT22;53063;39.614;8.814;2022-11-09T01:18:18;16.40;85.80
66271;DHT22;53063;39.614;8.814;2022-11-09T01:20:46;16.40;85.60
66271;DHT22;53063;39.614;8.814;2022-11-09T01:23:14;16.40;85.50
66271;DHT22;53063;39.614;8.814;2022-11-09T01:25:40;16.40;85.40
66271;DHT22;53063;39.614;8.814;2022-11-09T01:28:09;16.40;85.40
66271;DHT22;53063;39.614;8.814;2022-11-09T01:30:37;16.40;85.40
66271;DHT22;53063;39.614;8.814;2022-11-09T01:33:05;16.30;85.40
66271;DHT22;53063;39.614;8.814;2022-11-09T01:35:34;16.30;85.50
66271;DHT22;53063;39.614;8.814;2022-11-09T01:38:01;16.30;85.40
66271;DHT22;53063;39.614;8.814;2022-11-09T01:40:27;16.30;85.30
66271;DHT22;53063;39.614;8.814;2022-11-09T01:42:54;16.20;85.20
66271;DHT22;53063;39.614;8.814;2022-11-09T01:45:22;16.20;85.00
66271;DHT22;53063;39.614;8.814;2022-11-09T01:48:13;16.20;85.00
66271;DHT22;53063;39.614;8.814;2022-11-09T01:51:04;16.30;84.70
66271;DHT22;53063;39.614;8.814;2022-11-09T01:53:30;16.30;84.50
66271;DHT22;53063;39.614;8.814;2022-11-09T01:56:01;16.20;84.20
66271;DHT22;53063;39.614;8.814;2022-11-09T01:58:40;16.20;84.20
66271;DHT22;53063;39.614;8.814;2022-11-09T02:01:08;16.20;84.10
66271;DHT22;53063;39.614;8.814;2022-11-09T02:03:41;16.20;83.90
66271;DHT22;53063;39.614;8.814;2022-11-09T02:06:09;16.20;83.60
66271;DHT22;53063;39.614;8.814;2022-11-09T02:08:37;16.20;83.40
66271;DHT22;53063;39.614;8.814;2022-11-09T02:13:35;16.20;83.10
66271;DHT22;53063;39.614;8.814;2022-11-09T02:16:07;16.20;82.80
66271;DHT22;53063;39.614;8.814;2022-11-09T02:18:40;16.20;82.50
66271;DHT22;53063;39.614;8.814;2022-11-09T02:21:07;16.20;82.40
66271;DHT22;53063;39.614;8.814;2022-11-09T02:23:33;16.20;82.20
66271;DHT22;53063;39.614;8.814;2022-11-09T02:26:02;16.20;82.10
66271;DHT22;53063;39.614;8.814;2022-11-09T02:28:30;16.30;81.90
66271;DHT22;53063;39.614;8.814;2022-11-09T02:30:58;16.30;81.50
66271;DHT22;53063;39.614;8.814;2022-11-09T02:33:25;16.40;81.20
66271;DHT22;53063;39.614;8.814;2022-11-09T02:35:51;16.40;81.30
66271;DHT22;53063;39.614;8.814;2022-11-09T02:38:17;16.30;81.20
66271;DHT22;53063;39.614;8.814;2022-11-09T02:40:47;16.30;81.30
66271;DHT22;53063;39.614;8.814;2022-11-09T02:43:16;16.30;81.20
66271;DHT22;53063;39.614;8.814;2022-11-09T02:45:43;16.30;81.20
66271;DHT22;53063;39.614;8.814;2022-11-09T02:48:09;16.30;81.10
66271;DHT22;53063;39.614;8.814;2022-11-09T02:50:36;16.30;80.90
66271;DHT22;53063;39.614;8.814;2022-11-09T02:53:04;16.20;81.00
66271;DHT22;53063;39.614;8.814;2022-11-09T02:55:33;16.20;81.00
66271;DHT22;53063;39.614;8.814;2022-11-09T02:57:59;16.10;81.00
66271;DHT22;53063;39.614;8.814;2022-11-09T03:00:25;16.10;81.10
66271;DHT22;53063;39.614;8.814;2022-11-09T03:02:51;16.10;81.20
66271;DHT22;53063;39.614;8.814;2022-11-09T03:05:17;16.10;81.10
66271;DHT22;53063;39.614;8.814;2022-11-09T03:07:44;16.10;81.10
66271;DHT22;53063;39.614;8.814;2022-11-09T03:10:11;16.10;81.40
66271;DHT22;53063;39.614;8.814;2022-11-09T03:12:37;16.10;81.70
66271;DHT22;53063;39.614;8.814;2022-11-09T03:15:08;16.10;81.70
66271;DHT22;53063;39.614;8.814;2022-11-09T03:17:37;16.10;81.90
66271;DHT22;53063;39.614;8.814;2022-11-09T03:20:03;16.10;82.00
66271;DHT22;53063;39.614;8.814;2022-11-09T03:22:30;16.10;82.30
66271;DHT22;53063;39.614;8.814;2022-11-09T03:24:56;16.10;82.40
66271;DHT22;53063;39.614;8.814;2022-11-09T03:27:23;16.10;82.50
66271;DHT22;53063;39.614;8.814;2022-11-09T03:29:49;16.00;82.60
66271;DHT22;53063;39.614;8.814;2022-11-09T03:32:15;16.00;82.60
66271;DHT22;53063;39.614;8.814;2022-11-09T03:34:41;16.10;82.40
66271;DHT22;53063;39.614;8.814;2022-11-09T03:37:07;16.10;82.20
66271;DHT22;53063;39.614;8.814;2022-11-09T03:39:33;16.10;82.00
66271;DHT22;53063;39.614;8.814;2022-11-09T03:41:59;16.10;81.80
66271;DHT22;53063;39.614;8.814;2022-11-09T03:44:25;16.10;81.70
66271;DHT22;53063;39.614;8.814;2022-11-09T03:46:51;16.10;81.60
66271;DHT22;53063;39.614;8.814;2022-11-09T03:49:17;16.10;81.40
66271;DHT22;53063;39.614;8.814;2022-11-09T03:51:43;16.10;81.50
66271;DHT22;53063;39.614;8.814;2022-11-09T03:54:09;16.10;81.50
66271;DHT22;53063;39.614;8.814;2022-11-09T03:56:35;16.20;81.70
66271;DHT22;53063;39.614;8.814;2022-11-09T03:59:01;16.10;82.00
66271;DHT22;53063;39.614;8.814;2022-11-09T04:01:26;16.20;82.00
66271;DHT22;53063;39.614;8.814;2022-11-09T04:03:52;16.30;81.60
66271;DHT22;53063;39.614;8.814;2022-11-09T04:06:18;16.20;81.70
66271;DHT22;53063;39.614;8.814;2022-11-09T04:08:44;16.30;81.80
66271;DHT22;53063;39.614;8.814;2022-11-09T04:11:10;16.20;81.80
66271;DHT22;53063;39.614;8.814;2022-11-09T04:13:36;16.20;82.00
66271;DHT22;53063;39.614;8.814;2022-11-09T04:16:02;16.20;82.40
66271;DHT22;53063;39.614;8.814;2022-11-09T04:18:28;16.20;82.60
66271;DHT22;53063;39.614;8.814;2022-11-09T04:20:56;16.20;82.70
66271;DHT22;53063;39.614;8.814;2022-11-09T04:23:21;16.20;82.70
66271;DHT22;53063;39.614;8.814;2022-11-09T04:25:47;16.30;82.60
66271;DHT22;53063;39.614;8.814;2022-11-09T04:28:17;16.30;82.60
66271;DHT22;53063;39.614;8.814;2022-11-09T04:30:43;16.30;82.70
66271;DHT22;53063;39.614;8.814;2022-11-09T04:33:09;16.30;83.00
66271;DHT22;53063;39.614;8.814;2022-11-09T04:35:35;16.30;83.30
66271;DHT22;53063;39.614;8.814;2022-11-09T04:38:11;16.30;83.30
66271;DHT22;53063;39.614;8.814;2022-11-09T04:40:37;16.30;83.50
66271;DHT22;53063;39.614;8.814;2022-11-09T04:43:05;16.30;83.70
66271;DHT22;53063;39.614;8.814;2022-11-09T04:45:32;16.30;84.00
66271;DHT22;53063;39.614;8.814;2022-11-09T04:47:59;16.30;84.00
66271;DHT22;53063;39.614;8.814;2022-11-09T04:50:26;16.30;84.00
66271;DHT22;53063;39.614;8.814;2022-11-09T04:52:53;16.20;84.20
66271;DHT22;53063;39.614;8.814;2022-11-09T04:55:18;16.20;84.50
66271;DHT22;53063;39.614;8.814;2022-11-09T04:57:44;16.20;84.50
66271;DHT22;53063;39.614;8.814;2022-11-09T05:00:10;16.20;84.90
66271;DHT22;53063;39.614;8.814;2022-11-09T05:02:37;16.20;85.00
66271;DHT22;53063;39.614;8.814;2022-11-09T05:05:03;16.20;84.90
66271;DHT22;53063;39.614;8.814;2022-11-09T05:07:29;16.20;84.70
66271;DHT22;53063;39.614;8.814;2022-11-09T05:09:54;16.20;84.60
66271;DHT22;53063;39.614;8.814;2022-11-09T05:12:20;16.20;84.60
66271;DHT22;53063;39.614;8.814;2022-11-09T05:14:46;16.20;84.70
66271;DHT22;53063;39.614;8.814;2022-11-09T05:17:12;16.20;84.70
66271;DHT22;53063;39.614;8.814;2022-11-09T05:19:38;16.20;84.70
66271;DHT22;53063;39.614;8.814;2022-11-09T05:22:04;16.20;84.90
66271;DHT22;53063;39.614;8.814;2022-11-09T05:24:48;16.10;85.20
66271;DHT22;53063;39.614;8.814;2022-11-09T05:27:16;16.10;85.50
66271;DHT22;53063;39.614;8.814;2022-11-09T05:29:42;16.10;85.70
66271;DHT22;53063;39.614;8.814;2022-11-09T05:32:08;16.00;85.80
66271;DHT22;53063;39.614;8.814;2022-11-09T05:34:34;16.00;85.70
66271;DHT22;53063;39.614;8.814;2022-11-09T05:37:00;16.00;86.00
66271;DHT22;53063;39.614;8.814;2022-11-09T05:39:25;16.00;86.00
66271;DHT22;53063;39.614;8.814;2022-11-09T05:41:51;16.00;86.10
66271;DHT22;53063;39.614;8.814;2022-11-09T05:44:17;16.10;86.10
66271;DHT22;53063;39.614;8.814;2022-11-09T05:46:43;16.10;85.90
66271;DHT22;53063;39.614;8.814;2022-11-09T05:49:09;16.10;85.90
66271;DHT22;53063;39.614;8.814;2022-11-09T05:51:35;16.00;86.10
66271;DHT22;53063;39.614;8.814;2022-11-09T05:54:02;16.00;86.10
66271;DHT22;53063;39.614;8.814;2022-11-09T05:56:28;16.00;85.80
66271;DHT22;53063;39.614;8.814;2022-11-09T05:58:54;16.00;86.00
66271;DHT22;53063;39.614;8.814;2022-11-09T06:01:21;16.10;86.00
66271;DHT22;53063;39.614;8.814;2022-11-09T06:03:47;16.10;85.70
66271;DHT22;53063;39.614;8.814;2022-11-09T06:06:14;16.10;85.70
66271;DHT22;53063;39.614;8.814;2022-11-09T06:08:41;16.10;85.90
66271;DHT22;53063;39.614;8.814;2022-11-09T06:11:09;16.10;85.80
66271;DHT22;53063;39.614;8.814;2022-11-09T06:13:35;16.10;85.70
66271;DHT22;53063;39.614;8.814;2022-11-09T06:16:03;16.10;85.60
66271;DHT22;53063;39.614;8.814;2022-11-09T06:18:31;16.20;85.50
66271;DHT22;53063;39.614;8.814;2022-11-09T06:20:59;16.20;85.30
66271;DHT22;53063;39.614;8.814;2022-11-09T06:23:25;16.30;85.30
66271;DHT22;53063;39.614;8.814;2022-11-09T06:25:52;16.30;85.10
66271;DHT22;53063;39.614;8.814;2022-11-09T06:28:19;16.30;85.00
66271;DHT22;53063;39.614;8.814;2022-11-09T06:30:45;16.40;84.90
66271;DHT22;53063;39.614;8.814;2022-11-09T06:33:11;16.40;85.00
66271;DHT22;53063;39.614;8.814;2022-11-09T06:35:37;16.50;84.90
66271;DHT22;53063;39.614;8.814;2022-11-09T06:38:03;16.50;84.80
66271;DHT22;53063;39.614;8.814;2022-11-09T06:40:29;16.60;84.80
66271;DHT22;53063;39.614;8.814;2022-11-09T06:42:56;16.70;84.60
66271;DHT22;53063;39.614;8.814;2022-11-09T06:45:23;16.70;84.50
66271;DHT22;53063;39.614;8.814;2022-11-09T06:47:49;16.70;84.50
66271;DHT22;53063;39.614;8.814;2022-11-09T06:50:14;16.80;84.60
66271;DHT22;53063;39.614;8.814;2022-11-09T06:52:41;16.90;84.30
66271;DHT22;53063;39.614;8.814;2022-11-09T06:55:07;17.00;84.00
66271;DHT22;53063;39.614;8.814;2022-11-09T06:57:33;17.00;84.00
66271;DHT22;53063;39.614;8.814;2022-11-09T06:59:59;17.10;83.80
66271;DHT22;53063;39.614;8.814;2022-11-09T07:02:25;17.10;83.80
66271;DHT22;53063;39.614;8.814;2022-11-09T07:04:51;17.10;84.00
66271;DHT22;53063;39.614;8.814;2022-11-09T07:07:17;17.50;83.80
66271;DHT22;53063;39.614;8.814;2022-11-09T07:09:43;18.20;80.90
66271;DHT22;53063;39.614;8.814;2022-11-09T07:12:09;18.40;79.00
66271;DHT22;53063;39.614;8.814;2022-11-09T07:14:35;18.60;78.30
66271;DHT22;53063;39.614;8.814;2022-11-09T07:17:01;18.60;78.30
66271;DHT22;53063;39.614;8.814;2022-11-09T07:19:28;18.30;78.40
66271;DHT22;53063;39.614;8.814;2022-11-09T07:21:55;18.60;79.50
66271;DHT22;53063;39.614;8.814;2022-11-09T07:24:22;18.60;77.30
66271;DHT22;53063;39.614;8.814;2022-11-09T07:26:48;18.50;78.60
66271;DHT22;53063;39.614;8.814;2022-11-09T07:29:15;18.90;77.30
66271;DHT22;53063;39.614;8.814;2022-11-09T07:31:41;18.90;77.50
66271;DHT22;53063;39.614;8.814;2022-11-09T07:34:07;19.70;74.60
66271;DHT22;53063;39.614;8.814;2022-11-09T07:36:33;19.90;72.60
66271;DHT22;53063;39.614;8.814;2022-11-09T07:39:01;20.40;72.00
66271;DHT22;53063;39.614;8.814;2022-11-09T07:41:27;19.80;73.30
66271;DHT22;53063;39.614;8.814;2022-11-09T07:43:53;21.30;69.10
66271;DHT22;53063;39.614;8.814;2022-11-09T07:46:19;21.80;65.80
66271;DHT22;53063;39.614;8.814;2022-11-09T07:48:45;21.70;67.10
66271;DHT22;53063;39.614;8.814;2022-11-09T07:51:11;22.60;64.70
66271;DHT22;53063;39.614;8.814;2022-11-09T07:53:37;22.80;63.30
66271;DHT22;53063;39.614;8.814;2022-11-09T07:56:04;22.90;62.90
66271;DHT22;53063;39.614;8.814;2022-11-09T07:58:30;21.20;66.60
66271;DHT22;53063;39.614;8.814;2022-11-09T08:00:56;20.70;68.90
66271;DHT22;53063;39.614;8.814;2022-11-09T08:03:23;22.50;65.60
66271;DHT22;53063;39.614;8.814;2022-11-09T08:05:50;21.70;65.40
66271;DHT22;53063;39.614;8.814;2022-11-09T08:08:16;22.50;66.30
66271;DHT22;53063;39.614;8.814;2022-11-09T08:10:43;22.90;63.00
66271;DHT22;53063;39.614;8.814;2022-11-09T08:13:12;22.90;62.60
66271;DHT22;53063;39.614;8.814;2022-11-09T08:15:40;23.30;61.30
66271;DHT22;53063;39.614;8.814;2022-11-09T08:18:11;23.60;61.10
66271;DHT22;53063;39.614;8.814;2022-11-09T08:20:37;23.40;60.50
66271;DHT22;53063;39.614;8.814;2022-11-09T08:23:04;23.30;62.10
66271;DHT22;53063;39.614;8.814;2022-11-09T08:25:31;24.00;59.80
66271;DHT22;53063;39.614;8.814;2022-11-09T08:27:58;23.50;61.20
66271;DHT22;53063;39.614;8.814;2022-11-09T08:30:24;23.60;60.60
66271;DHT22;53063;39.614;8.814;2022-11-09T08:32:50;22.50;63.30
66271;DHT22;53063;39.614;8.814;2022-11-09T08:35:18;23.00;62.20
66271;DHT22;53063;39.614;8.814;2022-11-09T08:37:45;24.10;59.20
66271;DHT22;53063;39.614;8.814;2022-11-09T08:40:13;24.20;59.50
66271;DHT22;53063;39.614;8.814;2022-11-09T08:42:40;23.50;60.50
66271;DHT22;53063;39.614;8.814;2022-11-09T08:45:07;23.30;61.00
66271;DHT22;53063;39.614;8.814;2022-11-09T08:47:33;23.30;61.40
66271;DHT22;53063;39.614;8.814;2022-11-09T08:50:00;24.00;60.00
66271;DHT22;53063;39.614;8.814;2022-11-09T08:52:26;23.10;62.00
66271;DHT22;53063;39.614;8.814;2022-11-09T08:54:52;22.30;64.10
66271;DHT22;53063;39.614;8.814;2022-11-09T08:57:18;22.10;65.10
66271;DHT22;53063;39.614;8.814;2022-11-09T08:59:45;22.70;63.60
66271;DHT22;53063;39.614;8.814;2022-11-09T09:02:11;22.30;64.70
66271;DHT22;53063;39.614;8.814;2022-11-09T09:04:38;23.00;63.30
66271;DHT22;53063;39.614;8.814;2022-11-09T09:07:04;23.40;61.50
66271;DHT22;53063;39.614;8.814;2022-11-09T09:09:30;23.90;60.80
66271;DHT22;53063;39.614;8.814;2022-11-09T09:11:56;24.20;59.50
66271;DHT22;53063;39.614;8.814;2022-11-09T09:14:23;23.60;60.90
66271;DHT22;53063;39.614;8.814;2022-11-09T09:16:49;24.40;59.20
66271;DHT22;53063;39.614;8.814;2022-11-09T09:19:15;24.70;58.50
66271;DHT22;53063;39.614;8.814;2022-11-09T09:21:40;24.90;57.40
66271;DHT22;53063;39.614;8.814;2022-11-09T09:24:07;25.70;56.20
66271;DHT22;53063;39.614;8.814;2022-11-09T09:26:33;25.70;55.20
66271;DHT22;53063;39.614;8.814;2022-11-09T09:28:58;26.30;54.70
66271;DHT22;53063;39.614;8.814;2022-11-09T09:31:24;24.10;60.30
66271;DHT22;53063;39.614;8.814;2022-11-09T09:33:50;24.60;58.50
66271;DHT22;53063;39.614;8.814;2022-11-09T09:36:19;25.40;57.10
66271;DHT22;53063;39.614;8.814;2022-11-09T09:38:46;26.10;54.90
66271;DHT22;53063;39.614;8.814;2022-11-09T09:49:39;26.20;56.00
66271;DHT22;53063;39.614;8.814;2022-11-09T09:52:25;26.20;55.00
66271;DHT22;53063;39.614;8.814;2022-11-09T09:55:24;25.90;56.60
66271;DHT22;53063;39.614;8.814;2022-11-09T09:57:54;26.40;55.80
66271;DHT22;53063;39.614;8.814;2022-11-09T10:00:26;26.10;55.70
66271;DHT22;53063;39.614;8.814;2022-11-09T10:02:53;26.40;55.20
66271;DHT22;53063;39.614;8.814;2022-11-09T10:05:20;27.30;54.30
66271;DHT22;53063;39.614;8.814;2022-11-09T10:08:26;26.50;54.90
66271;DHT22;53063;39.614;8.814;2022-11-09T10:16:02;24.00;61.50
66271;DHT22;53063;39.614;8.814;2022-11-09T10:19:18;23.00;64.70
66271;DHT22;53063;39.614;8.814;2022-11-09T10:21:38;23.30;64.70
66271;DHT22;53063;39.614;8.814;2022-11-09T10:24:26;23.50;64.10
66271;DHT22;53063;39.614;8.814;2022-11-09T10:26:58;23.70;63.30
66271;DHT22;53063;39.614;8.814;2022-11-09T10:29:45;23.70;63.60
66271;DHT22;53063;39.614;8.814;2022-11-09T10:32:14;23.50;64.20
66271;DHT22;53063;39.614;8.814;2022-11-09T10:37:18;23.30;65.10
66271;DHT22;53063;39.614;8.814;2022-11-09T10:39:55;23.10;65.90
66271;DHT22;53063;39.614;8.814;2022-11-09T10:42:44;23.00;66.20
66271;DHT22;53063;39.614;8.814;2022-11-09T10:45:37;23.20;66.70
66271;DHT22;53063;39.614;8.814;2022-11-09T10:48:34;23.60;64.40
66271;DHT22;53063;39.614;8.814;2022-11-09T10:51:32;24.10;63.50
66271;DHT22;53063;39.614;8.814;2022-11-09T10:54:23;23.40;64.50
66271;DHT22;53063;39.614;8.814;2022-11-09T10:57:15;23.10;65.60
66271;DHT22;53063;39.614;8.814;2022-11-09T11:00:00;23.80;63.90
66271;DHT22;53063;39.614;8.814;2022-11-09T11:02:46;23.80;63.60
66271;DHT22;53063;39.614;8.814;2022-11-09T11:05:31;23.60;64.40
66271;DHT22;53063;39.614;8.814;2022-11-09T11:08:38;23.60;63.20
66271;DHT22;53063;39.614;8.814;2022-11-09T11:11:26;23.70;64.50
66271;DHT22;53063;39.614;8.814;2022-11-09T11:17:23;23.50;64.10
66271;DHT22;53063;39.614;8.814;2022-11-09T11:23:21;23.10;63.70
66271;DHT22;53063;39.614;8.814;2022-11-09T11:32:02;23.20;64.90
66271;DHT22;53063;39.614;8.814;2022-11-09T11:34:46;23.00;65.30
66271;DHT22;53063;39.614;8.814;2022-11-09T11:40:49;23.00;65.60
66271;DHT22;53063;39.614;8.814;2022-11-09T11:44:02;22.90;65.80
66271;DHT22;53063;39.614;8.814;2022-11-09T11:47:17;23.20;64.70
66271;DHT22;53063;39.614;8.814;2022-11-09T12:00:13;23.40;64.10
66271;DHT22;53063;39.614;8.814;2022-11-09T12:21:54;23.70;62.60
66271;DHT22;53063;39.614;8.814;2022-11-09T12:25:32;23.70;64.10
66271;DHT22;53063;39.614;8.814;2022-11-09T12:31:25;24.30;62.00
66271;DHT22;53063;39.614;8.814;2022-11-09T12:37:13;24.10;62.80
66271;DHT22;53063;39.614;8.814;2022-11-09T12:40:16;23.70;62.70
66271;DHT22;53063;39.614;8.814;2022-11-09T12:43:13;24.10;63.00
66271;DHT22;53063;39.614;8.814;2022-11-09T12:46:01;24.30;62.00
66271;DHT22;53063;39.614;8.814;2022-11-09T12:48:47;24.20;63.40
66271;DHT22;53063;39.614;8.814;2022-11-09T12:51:33;24.20;62.30
66271;DHT22;53063;39.614;8.814;2022-11-09T12:54:18;24.00;63.30
66271;DHT22;53063;39.614;8.814;2022-11-09T12:57:13;23.90;62.50
66271;DHT22;53063;39.614;8.814;2022-11-09T13:00:00;23.80;63.00
66271;DHT22;53063;39.614;8.814;2022-11-09T13:02:56;23.50;64.10
66271;DHT22;53063;39.614;8.814;2022-11-09T13:05:41;23.60;64.20
66271;DHT22;53063;39.614;8.814;2022-11-09T13:08:29;23.60;63.80
66271;DHT22;53063;39.614;8.814;2022-11-09T13:23:34;23.80;62.40
66271;DHT22;53063;39.614;8.814;2022-11-09T13:32:24;23.30;63.50
66271;DHT22;53063;39.614;8.814;2022-11-09T13:38:34;23.40;64.20
66271;DHT22;53063;39.614;8.814;2022-11-09T13:44:23;23.70;65.00
66271;DHT22;53063;39.614;8.814;2022-11-09T13:47:20;23.50;65.80
66271;DHT22;53063;39.614;8.814;2022-11-09T13:50:26;23.40;65.10
66271;DHT22;53063;39.614;8.814;2022-11-09T13:53:51;23.10;66.00
66271;DHT22;53063;39.614;8.814;2022-11-09T13:56:38;23.30;66.50
66271;DHT22;53063;39.614;8.814;2022-11-09T13:59:38;23.60;66.00
66271;DHT22;53063;39.614;8.814;2022-11-09T14:02:25;23.00;66.90
66271;DHT22;53063;39.614;8.814;2022-11-09T14:05:31;23.00;67.40
66271;DHT22;53063;39.614;8.814;2022-11-09T14:08:36;22.90;67.30
66271;DHT22;53063;39.614;8.814;2022-11-09T14:15:14;22.80;68.40
66271;DHT22;53063;39.614;8.814;2022-11-09T14:21:14;22.80;67.40
66271;DHT22;53063;39.614;8.814;2022-11-09T14:24:06;22.80;68.00
66271;DHT22;53063;39.614;8.814;2022-11-09T14:27:21;22.80;68.30
66271;DHT22;53063;39.614;8.814;2022-11-09T14:30:19;22.80;67.90
66271;DHT22;53063;39.614;8.814;2022-11-09T14:33:26;22.30;68.60
66271;DHT22;53063;39.614;8.814;2022-11-09T14:36:12;22.30;68.70
66271;DHT22;53063;39.614;8.814;2022-11-09T14:38:57;22.30;68.40
66271;DHT22;53063;39.614;8.814;2022-11-09T14:41:43;22.40;67.90
66271;DHT22;53063;39.614;8.814;2022-11-09T14:44:30;22.40;68.60
66271;DHT22;53063;39.614;8.814;2022-11-09T14:47:28;22.20;69.90
66271;DHT22;53063;39.614;8.814;2022-11-09T14:53:11;22.20;70.00
66271;DHT22;53063;39.614;8.814;2022-11-09T14:55:59;22.20;69.70
66271;DHT22;53063;39.614;8.814;2022-11-09T14:58:44;22.20;70.00
66271;DHT22;53063;39.614;8.814;2022-11-09T15:01:29;22.20;70.30
66271;DHT22;53063;39.614;8.814;2022-11-09T15:04:18;22.10;70.60
66271;DHT22;53063;39.614;8.814;2022-11-09T15:07:04;22.00;71.00
66271;DHT22;53063;39.614;8.814;2022-11-09T15:10:18;22.00;71.20
66271;DHT22;53063;39.614;8.814;2022-11-09T15:13:03;21.80;71.50
66271;DHT22;53063;39.614;8.814;2022-11-09T15:15:52;21.80;72.00
66271;DHT22;53063;39.614;8.814;2022-11-09T15:18:44;21.80;72.00
66271;DHT22;53063;39.614;8.814;2022-11-09T15:24:16;21.50;72.70
66271;DHT22;53063;39.614;8.814;2022-11-09T15:27:01;21.60;73.00
66271;DHT22;53063;39.614;8.814;2022-11-09T15:29:46;21.50;73.20
66271;DHT22;53063;39.614;8.814;2022-11-09T15:32:37;21.30;73.70
66271;DHT22;53063;39.614;8.814;2022-11-09T15:35:21;21.20;74.30
66271;DHT22;53063;39.614;8.814;2022-11-09T15:41:14;21.20;75.30
66271;DHT22;53063;39.614;8.814;2022-11-09T15:43:59;21.00;75.80
66271;DHT22;53063;39.614;8.814;2022-11-09T15:46:46;20.90;76.60
66271;DHT22;53063;39.614;8.814;2022-11-09T15:49:31;20.80;77.20
66271;DHT22;53063;39.614;8.814;2022-11-09T15:52:15;20.70;77.90
66271;DHT22;53063;39.614;8.814;2022-11-09T15:55:00;20.70;78.30
66271;DHT22;53063;39.614;8.814;2022-11-09T15:57:44;20.50;78.90
66271;DHT22;53063;39.614;8.814;2022-11-09T16:00:29;20.50;79.40
66271;DHT22;53063;39.614;8.814;2022-11-09T16:03:13;20.30;80.10
66271;DHT22;53063;39.614;8.814;2022-11-09T16:06:00;20.30;80.50
66271;DHT22;53063;39.614;8.814;2022-11-09T16:08:48;20.20;80.90
66271;DHT22;53063;39.614;8.814;2022-11-09T16:11:33;20.10;81.40
66271;DHT22;53063;39.614;8.814;2022-11-09T16:14:17;20.10;81.70
66271;DHT22;53063;39.614;8.814;2022-11-09T16:17:05;20.00;82.70
66271;DHT22;53063;39.614;8.814;2022-11-09T16:19:50;19.90;83.20
66271;DHT22;53063;39.614;8.814;2022-11-09T16:22:35;19.90;83.00
66271;DHT22;53063;39.614;8.814;2022-11-09T16:25:20;19.90;83.50
66271;DHT22;53063;39.614;8.814;2022-11-09T16:28:04;19.90;83.30
66271;DHT22;53063;39.614;8.814;2022-11-09T16:30:49;19.90;83.20
66271;DHT22;53063;39.614;8.814;2022-11-09T16:33:34;19.90;83.10
66271;DHT22;53063;39.614;8.814;2022-11-09T16:36:20;19.90;83.20
66271;DHT22;53063;39.614;8.814;2022-11-09T16:39:07;19.90;83.10
66271;DHT22;53063;39.614;8.814;2022-11-09T16:41:56;19.90;83.20
66271;DHT22;53063;39.614;8.814;2022-11-09T16:44:46;19.80;83.40
66271;DHT22;53063;39.614;8.814;2022-11-09T16:47:36;19.70;83.70
66271;DHT22;53063;39.614;8.814;2022-11-09T16:50:22;19.70;83.90
66271;DHT22;53063;39.614;8.814;2022-11-09T16:53:07;19.70;84.00
66271;DHT22;53063;39.614;8.814;2022-11-09T16:55:51;19.70;84.10
66271;DHT22;53063;39.614;8.814;2022-11-09T16:58:35;19.60;84.30
66271;DHT22;53063;39.614;8.814;2022-11-09T17:01:20;19.60;84.40
66271;DHT22;53063;39.614;8.814;2022-11-09T17:04:05;19.60;84.70
66271;DHT22;53063;39.614;8.814;2022-11-09T17:06:50;19.50;84.90
66271;DHT22;53063;39.614;8.814;2022-11-09T17:09:35;19.50;85.40
66271;DHT22;53063;39.614;8.814;2022-11-09T17:12:19;19.40;85.60
66271;DHT22;53063;39.614;8.814;2022-11-09T17:15:04;19.40;85.80
66271;DHT22;53063;39.614;8.814;2022-11-09T17:17:49;19.40;86.10
66271;DHT22;53063;39.614;8.814;2022-11-09T17:20:33;19.40;86.30
66271;DHT22;53063;39.614;8.814;2022-11-09T17:23:18;19.30;86.60
66271;DHT22;53063;39.614;8.814;2022-11-09T17:26:05;19.20;86.90
66271;DHT22;53063;39.614;8.814;2022-11-09T17:28:50;19.20;86.80
66271;DHT22;53063;39.614;8.814;2022-11-09T17:31:34;19.20;86.80
66271;DHT22;53063;39.614;8.814;2022-11-09T17:34:19;19.10;87.00
66271;DHT22;53063;39.614;8.814;2022-11-09T17:37:04;19.10;86.90
66271;DHT22;53063;39.614;8.814;2022-11-09T17:39:48;19.10;87.00
66271;DHT22;53063;39.614;8.814;2022-11-09T17:42:34;19.00;86.90
66271;DHT22;53063;39.614;8.814;2022-11-09T17:45:18;19.00;87.10
66271;DHT22;53063;39.614;8.814;2022-11-09T17:48:03;18.90;87.20
66271;DHT22;53063;39.614;8.814;2022-11-09T17:50:48;18.90;87.20
66271;DHT22;53063;39.614;8.814;2022-11-09T17:53:33;18.90;87.40
66271;DHT22;53063;39.614;8.814;2022-11-09T17:56:17;18.80;87.80
66271;DHT22;53063;39.614;8.814;2022-11-09T17:59:04;18.80;87.90
66271;DHT22;53063;39.614;8.814;2022-11-09T18:01:48;18.80;87.80
66271;DHT22;53063;39.614;8.814;2022-11-09T18:04:33;18.80;88.00
66271;DHT22;53063;39.614;8.814;2022-11-09T18:07:17;18.70;88.20
66271;DHT22;53063;39.614;8.814;2022-11-09T18:10:02;18.70;88.50